Time;durP1;ratioP1;P1;durP2;ratioP2;P2;SDS_P1;SDS_P2;PMS_P1;PMS_P2;Temp;Humidity;BMP_temperature;BMP_pressure;BME280_temperature;BME280_humidity;BME280_pressure;Samples;Min_cycle;Max_cycle;Signal;HPM_P1;HPM_P2
2022/05/31 00:07:27;;;;;;;3.13;2.13;;;;;;;7.34;87.74;99983.41;4940710;29;20488;-72
2022/05/31 00:09:53;;;;;;;4.20;2.33;;;;;;;7.29;88.83;99975.22;4940111;29;20046;-72
2022/05/31 00:12:18;;;;;;;3.90;2.53;;;;;;;7.26;88.90;99979.25;4943194;29;20026;-72
2022/05/31 00:14:45;;;;;;;4.00;2.22;;;;;;;7.23;88.85;99974.34;4935913;29;20031;-73
2022/05/31 00:17:11;;;;;;;5.35;2.10;;;;;;;7.22;89.59;99977.31;4924232;29;20062;-72
2022/05/31 00:19:37;;;;;;;2.75;2.28;;;;;;;7.24;90.26;99991.47;4924886;29;20058;-73
2022/05/31 00:22:09;;;;;;;8.00;2.40;;;;;;;7.11;90.18;99977.19;4939296;29;20075;-72
2022/05/31 00:34:53;;;;;;;2.88;2.20;;;;;;;7.10;90.93;99989.13;4941791;29;20046;-74
2022/05/31 00:37:24;;;;;;;4.15;2.40;;;;;;;6.99;91.61;99979.22;4947277;29;20028;-72
2022/05/31 00:39:50;;;;;;;2.53;2.33;;;;;;;6.90;91.71;99969.88;4946453;29;20028;-73
2022/05/31 00:42:26;;;;;;;2.83;2.35;;;;;;;6.82;91.45;99958.34;4949061;29;20031;-72
2022/05/31 00:44:55;;;;;;;3.05;2.47;;;;;;;6.85;92.22;99964.34;4926176;29;20059;-75
2022/05/31 00:47:35;;;;;;;2.67;2.13;;;;;;;6.78;91.46;99973.50;4926456;29;20028;-73
2022/05/31 01:03:29;;;;;;;3.38;2.35;;;;;;;6.52;91.54;99975.06;4945661;29;20095;-73
2022/05/31 01:05:54;;;;;;;5.20;2.55;;;;;;;6.54;91.51;99983.81;4937249;29;20027;-74
2022/05/31 01:08:22;;;;;;;3.70;2.50;;;;;;;6.51;91.88;99978.84;4934522;29;20052;-75
2022/05/31 01:10:49;;;;;;;4.95;2.50;;;;;;;6.44;91.64;99975.50;4917030;29;20043;-74
2022/05/31 01:13:17;;;;;;;5.40;2.55;;;;;;;6.45;91.12;99972.53;4907537;29;20034;-74
2022/05/31 01:15:45;;;;;;;4.15;2.40;;;;;;;6.45;91.20;99964.41;4936224;29;20479;-75
2022/05/31 01:18:11;;;;;;;7.85;2.97;;;;;;;6.45;91.80;99963.56;4941487;29;20062;-73
2022/05/31 01:20:38;;;;;;;3.83;2.53;;;;;;;6.34;91.80;99951.72;4936841;29;20090;-73
2022/05/31 01:23:17;;;;;;;4.05;2.65;;;;;;;6.45;91.22;99969.81;4932469;29;20023;-72
2022/05/31 01:25:55;;;;;;;2.17;1.98;;;;;;;6.38;91.40;99950.16;4940942;29;20124;-72
2022/05/31 01:28:49;;;;;;;4.60;2.50;;;;;;;6.44;91.10;99957.31;4937852;29;20481;-74
2022/05/31 01:41:46;;;;;;;7.10;2.10;;;;;;;6.66;91.41;99959.25;4955981;29;20131;-75
2022/05/31 01:44:16;;;;;;;4.00;2.80;;;;;;;6.64;91.10;99955.94;4936380;29;20037;-74
2022/05/31 01:46:43;;;;;;;6.90;2.90;;;;;;;6.64;90.34;99945.06;4945451;29;20098;-76
2022/05/31 01:49:12;;;;;;;6.13;2.58;;;;;;;6.71;90.02;99955.75;4911335;29;20042;-75
2022/05/31 01:51:43;;;;;;;3.72;2.35;;;;;;;6.72;90.97;99960.94;4937465;29;20042;-75
2022/05/31 02:48:26;;;;;;;1.70;1.60;;;;;;;6.24;90.54;99970.59;4939171;28;20074;-75
2022/05/31 04:45:29;;;;;;;4.28;1.10;;;;;;;5.38;89.10;99955.28;4915762;28;20108;-74
2022/05/31 04:47:54;;;;;;;3.22;1.50;;;;;;;5.45;89.05;99965.97;4916046;29;20089;-74
2022/05/31 04:50:20;;;;;;;2.67;1.73;;;;;;;5.43;89.65;99963.50;4927676;29;20023;-74
2022/05/31 04:52:46;;;;;;;3.13;1.40;;;;;;;5.49;89.66;99961.72;4935750;29;20027;-74
2022/05/31 04:55:12;;;;;;;2.53;1.30;;;;;;;5.53;88.77;99973.72;4936947;29;20035;-73
2022/05/31 04:57:37;;;;;;;1.98;1.17;;;;;;;5.58;89.32;99962.97;4914723;29;20038;-75
2022/05/31 05:00:06;;;;;;;1.55;1.10;;;;;;;5.69;89.95;99972.09;4943645;29;20028;-75
2022/05/31 05:02:32;;;;;;;3.47;2.00;;;;;;;5.76;89.37;99973.59;4941273;29;20019;-75
2022/05/31 05:04:57;;;;;;;2.10;1.77;;;;;;;5.87;88.41;99973.75;4956251;29;20344;-75
2022/05/31 05:07:23;;;;;;;2.15;1.80;;;;;;;5.90;88.94;99967.88;4948701;29;20126;-74
2022/05/31 05:09:50;;;;;;;2.50;2.17;;;;;;;5.95;88.55;99966.03;4925141;29;20031;-75
2022/05/31 05:12:16;;;;;;;2.90;1.70;;;;;;;6.05;88.42;99973.56;4926802;29;20375;-74
2022/05/31 05:14:41;;;;;;;3.53;2.10;;;;;;;6.14;88.90;99965.00;4942916;29;20094;-75
2022/05/31 05:17:06;;;;;;;2.92;2.13;;;;;;;6.25;87.89;99975.78;4952217;29;20044;-74
2022/05/31 05:19:32;;;;;;;2.42;1.65;;;;;;;6.35;88.00;99975.13;4909309;29;20059;-75
2022/05/31 05:22:00;;;;;;;6.15;2.17;;;;;;;6.50;87.81;99979.09;4959944;29;20398;-75
2022/05/31 05:24:25;;;;;;;2.72;1.90;;;;;;;6.56;87.48;99965.34;4908881;29;20040;-74
2022/05/31 05:26:53;;;;;;;2.45;1.75;;;;;;;6.68;86.33;99967.94;4905452;29;20059;-73
2022/05/31 05:32:06;;;;;;;4.55;1.65;;;;;;;6.69;86.04;99958.72;4954210;29;20034;-74
2022/05/31 05:34:32;;;;;;;1.63;1.50;;;;;;;6.84;85.59;99970.88;4925878;29;20034;-74
2022/05/31 05:36:58;;;;;;;3.08;1.90;;;;;;;6.79;85.86;99964.31;4938496;29;20390;-72
2022/05/31 05:39:23;;;;;;;5.13;1.67;;;;;;;7.05;86.05;99978.19;4924223;29;20040;-76
2022/05/31 05:41:49;;;;;;;2.25;1.80;;;;;;;7.26;85.32;99967.56;4930992;29;20023;-74
2022/05/31 05:44:19;;;;;;;4.03;1.50;;;;;;;7.53;84.74;99969.47;4916868;29;20072;-75
2022/05/31 05:46:44;;;;;;;2.58;1.50;;;;;;;7.93;84.31;99982.66;4935639;29;20031;-75
2022/05/31 05:49:11;;;;;;;3.83;1.73;;;;;;;8.24;82.80;99979.34;4927809;29;20146;-75
2022/05/31 05:51:36;;;;;;;5.22;1.23;;;;;;;8.53;81.77;99977.13;4911000;29;20406;-73
2022/05/31 05:54:02;;;;;;;2.28;1.40;;;;;;;8.75;80.61;99971.50;4935896;29;20076;-74
2022/05/31 05:56:28;;;;;;;3.25;1.50;;;;;;;8.99;79.14;99987.44;4948835;29;20074;-75
2022/05/31 05:58:54;;;;;;;2.50;1.48;;;;;;;9.14;78.45;99984.78;4931640;29;20040;-75
2022/05/31 06:01:32;;;;;;;2.50;1.20;;;;;;;9.39;78.92;99978.56;4944688;29;20095;-76
2022/05/31 06:04:10;;;;;;;2.55;1.40;;;;;;;9.58;77.78;99967.97;4946521;29;20039;-76
2022/05/31 06:06:40;;;;;;;3.17;1.23;;;;;;;9.71;77.09;99976.72;4932565;29;20471;-73
2022/05/31 06:09:09;;;;;;;3.55;1.27;;;;;;;9.76;76.88;99968.53;4941419;29;20099;-75
2022/05/31 06:11:41;;;;;;;1.15;0.90;;;;;;;9.72;76.71;99975.63;4946199;29;20041;-75
2022/05/31 06:14:12;;;;;;;1.98;1.40;;;;;;;9.65;76.92;99978.63;4933555;29;20108;-75
2022/05/31 06:16:48;;;;;;;2.00;1.10;;;;;;;9.41;77.13;99972.84;4947566;29;20027;-75
2022/05/31 06:19:20;;;;;;;3.00;1.30;;;;;;;9.27;77.84;99983.44;4940418;29;20039;-75
2022/05/31 06:21:48;;;;;;;1.88;1.58;;;;;;;9.11;79.38;99988.03;4945524;29;20028;-74
2022/05/31 06:24:14;;;;;;;3.22;1.30;;;;;;;9.00;79.79;99975.44;4935054;29;20037;-74
2022/05/31 06:26:39;;;;;;;4.38;1.13;;;;;;;8.98;79.54;99980.31;4928735;29;20043;-74
2022/05/31 06:29:05;;;;;;;1.73;1.10;;;;;;;8.96;80.31;99987.97;4945075;29;20409;-72
2022/05/31 06:31:31;;;;;;;2.03;1.52;;;;;;;9.03;80.53;99994.00;4939285;29;20064;-73
2022/05/31 06:33:56;;;;;;;3.97;1.40;;;;;;;9.13;79.06;99996.78;4921279;29;20020;-73
2022/05/31 06:36:25;;;;;;;1.30;1.20;;;;;;;9.19;79.40;99989.44;4942502;29;20483;-72
2022/05/31 06:38:50;;;;;;;1.65;1.20;;;;;;;9.30;79.31;99988.38;4933557;29;20039;-73
2022/05/31 06:41:16;;;;;;;3.83;1.38;;;;;;;9.48;78.24;99994.44;4933540;29;20047;-73
2022/05/31 06:43:44;;;;;;;4.13;1.52;;;;;;;9.67;78.32;99986.56;4915950;29;20040;-75
2022/05/31 06:46:31;;;;;;;0.80;0.77;;;;;;;9.95;76.42;99977.00;4926806;29;20040;-76
2022/05/31 06:49:01;;;;;;;3.10;1.00;;;;;;;10.60;75.02;99981.88;4941558;29;20016;-73
2022/05/31 06:57:04;;;;;;;3.53;1.23;;;;;;;11.89;69.05;99976.63;4958150;28;20090;-76
2022/05/31 06:59:34;;;;;;;2.28;1.20;;;;;;;12.38;67.66;99997.63;4940377;29;20047;-75
2022/05/31 07:02:08;;;;;;;1.63;0.82;;;;;;;12.48;66.09;99995.88;4923012;29;20032;-74
2022/05/31 07:04:51;;;;;;;2.38;0.85;;;;;;;12.52;65.91;100002.41;4925251;29;20093;-75
2022/05/31 07:07:20;;;;;;;2.85;1.25;;;;;;;12.58;66.19;99995.78;4937358;29;20044;-76
2022/05/31 07:09:51;;;;;;;3.35;1.20;;;;;;;12.88;66.97;100002.06;4943141;29;20151;-76
2022/05/31 07:13:02;;;;;;;5.25;1.48;;;;;;;12.95;65.68;99977.78;4945015;29;20462;-75
2022/05/31 07:15:31;;;;;;;2.72;1.23;;;;;;;12.92;65.42;99979.22;4957524;29;20035;-74
2022/05/31 07:17:57;;;;;;;2.17;0.90;;;;;;;13.04;66.07;99986.19;4943997;28;20031;-75
2022/05/31 07:20:28;;;;;;;2.90;1.35;;;;;;;12.93;65.97;99983.56;4928906;29;20039;-74
2022/05/31 07:23:44;;;;;;;3.95;1.00;;;;;;;12.95;65.63;99988.78;4957198;29;20479;-74
2022/05/31 07:27:03;;;;;;;1.60;0.90;;;;;;;12.95;65.42;100007.97;4948612;29;20505;-75
2022/05/31 07:29:29;;;;;;;3.92;0.98;;;;;;;13.04;65.81;100003.50;4948231;29;20027;-75
2022/05/31 07:32:42;;;;;;;2.90;0.98;;;;;;;13.31;65.14;100004.81;4944887;29;20058;-74
2022/05/31 07:35:29;;;;;;;1.60;0.98;;;;;;;13.65;64.24;100001.06;4964256;29;20039;-77
2022/05/31 07:37:54;;;;;;;1.85;0.80;;;;;;;13.86;63.37;100003.53;4960582;29;20042;-76
2022/05/31 07:40:20;;;;;;;1.70;0.80;;;;;;;13.66;62.67;99994.47;4948016;29;20028;-74
2022/05/31 07:42:46;;;;;;;5.47;1.10;;;;;;;13.65;63.64;100006.56;4941389;29;20044;-76
2022/05/31 07:45:11;;;;;;;3.45;0.80;;;;;;;13.71;63.69;99986.16;4941891;29;20051;-75
2022/05/31 07:47:39;;;;;;;5.70;0.75;;;;;;;14.21;62.52;99999.41;4929411;29;20110;-76
2022/05/31 07:50:05;;;;;;;2.33;0.90;;;;;;;14.46;61.80;99998.13;4925051;29;20020;-74
2022/05/31 07:52:33;;;;;;;3.05;0.90;;;;;;;14.60;60.41;99998.16;4948123;29;20038;-75
2022/05/31 07:55:23;;;;;;;3.42;1.02;;;;;;;14.77;60.20;99994.03;4957384;29;20038;-77
2022/05/31 08:00:50;;;;;;;5.18;0.65;;;;;;;15.11;59.13;100007.41;4955888;28;20038;-75
2022/05/31 08:03:25;;;;;;;2.47;0.80;;;;;;;15.44;58.66;99999.00;4931685;29;20046;-75
2022/05/31 08:05:55;;;;;;;1.90;0.50;;;;;;;15.85;57.21;100017.38;4935444;29;20539;-74
2022/05/31 08:08:24;;;;;;;5.07;0.90;;;;;;;16.49;55.45;100010.88;4934031;29;20051;-74
2022/05/31 08:11:16;;;;;;;2.35;0.60;;;;;;;17.25;54.59;100018.19;4933280;29;20098;-75
2022/05/31 08:13:46;;;;;;;1.80;0.55;;;;;;;17.50;52.43;100021.34;4946733;29;20031;-74
2022/05/31 08:16:39;;;;;;;1.00;0.70;;;;;;;17.66;52.62;100023.66;4943856;29;20107;-75
2022/05/31 08:19:19;;;;;;;1.88;0.68;;;;;;;16.85;52.10;100023.72;4929090;29;20032;-74
2022/05/31 08:21:49;;;;;;;1.75;0.80;;;;;;;16.04;54.31;100024.69;4934162;29;20041;-73
2022/05/31 08:24:16;;;;;;;4.03;0.50;;;;;;;15.03;55.57;100010.88;4935360;29;20035;-75
2022/05/31 08:26:42;;;;;;;5.18;1.10;;;;;;;14.66;56.81;100037.44;4925191;29;20035;-75
2022/05/31 08:29:12;;;;;;;3.50;0.60;;;;;;;14.03;58.51;100023.06;4924600;29;20039;-75
2022/05/31 08:31:40;;;;;;;1.55;0.60;;;;;;;13.54;59.41;100016.91;4939325;29;20512;-74
2022/05/31 08:34:06;;;;;;;3.83;0.52;;;;;;;13.27;61.38;100021.06;4946911;29;20027;-75
2022/05/31 08:36:32;;;;;;;2.28;0.60;;;;;;;13.05;62.03;100029.84;4930227;29;20031;-75
2022/05/31 08:39:01;;;;;;;2.38;0.70;;;;;;;12.75;62.18;100029.06;4945085;29;20375;-76
2022/05/31 08:41:33;;;;;;;3.63;0.95;;;;;;;12.48;63.20;100031.53;4962465;28;20039;-76
2022/05/31 08:44:38;;;;;;;2.30;0.88;;;;;;;12.28;64.56;100041.56;4929644;28;20027;-75
2022/05/31 08:47:25;;;;;;;1.20;0.65;;;;;;;12.18;65.21;100041.66;4955038;28;20046;-77
2022/05/31 08:53:37;;;;;;;1.40;0.60;;;;;;;12.25;65.19;100033.94;4869698;29;20084;-76
2022/05/31 08:59:41;;;;;;;1.85;0.80;;;;;;;12.70;64.35;100031.88;4939848;29;20043;-74
2022/05/31 09:02:27;;;;;;;;;;;;;;;13.39;61.94;100053.63;4930489;29;20024;-75
2022/05/31 09:05:22;;;;;;;1.55;0.70;;;;;;;14.05;60.49;100053.81;4927397;29;19914;-75
2022/05/31 09:08:17;;;;;;;1.83;0.80;;;;;;;14.79;59.10;100061.44;4922333;29;20454;-74
2022/05/31 09:10:56;;;;;;;2.65;0.93;;;;;;;15.03;56.59;100054.13;4932124;29;20020;-75
2022/05/31 09:13:36;;;;;;;4.13;0.60;;;;;;;15.30;56.13;100059.63;4938196;29;20027;-75
2022/05/31 09:16:10;;;;;;;4.20;0.63;;;;;;;15.63;54.28;100048.44;4922308;28;20046;-75
2022/05/31 09:18:57;;;;;;;1.20;0.63;;;;;;;15.87;52.19;100055.66;4935513;29;20028;-75
2022/05/31 09:21:25;;;;;;;1.33;0.77;;;;;;;16.33;51.77;100062.06;4925663;29;20044;-74
2022/05/31 09:23:53;;;;;;;2.70;0.57;;;;;;;16.46;51.35;100055.66;4927440;29;20011;-76
2022/05/31 09:26:37;;;;;;;3.42;0.60;;;;;;;16.37;52.39;100058.34;4944917;29;20091;-76
2022/05/31 09:29:20;;;;;;;1.23;0.57;;;;;;;15.95;52.79;100059.66;4928065;29;20039;-75
2022/05/31 09:32:25;;;;;;;1.58;0.75;;;;;;;15.40;55.82;100047.56;4929534;29;20043;-75
2022/05/31 09:35:12;;;;;;;5.73;0.80;;;;;;;15.32;56.97;100051.06;4937922;29;20107;-77
2022/05/31 09:38:15;;;;;;;2.67;0.50;;;;;;;15.57;57.67;100052.44;4936457;29;20023;-74
2022/05/31 09:40:44;;;;;;;3.80;0.60;;;;;;;15.62;58.10;100049.56;4931807;29;20023;-75
2022/05/31 09:43:37;;;;;;;2.10;0.70;;;;;;;15.76;56.80;100044.03;4926026;29;20051;-76
2022/05/31 09:46:11;;;;;;;0.90;0.50;;;;;;;15.92;57.24;100040.97;4929055;29;20092;-75
2022/05/31 09:48:49;;;;;;;1.50;0.60;;;;;;;16.31;54.96;100036.72;4935970;29;20084;-75
2022/05/31 09:51:20;;;;;;;0.85;0.45;;;;;;;16.20;55.35;100025.94;4934645;29;20033;-74
2022/05/31 09:59:28;;;;;;;0.20;0.20;;;;;;;16.82;51.90;100040.94;4906122;29;20482;-74
2022/05/31 10:02:15;;;;;;;1.30;0.40;;;;;;;17.87;50.17;100030.19;4935543;29;20578;-74
2022/05/31 10:04:50;;;;;;;2.67;0.55;;;;;;;19.30;46.92;100042.25;4895080;29;20048;-75
2022/05/31 10:18:39;;;;;;;0.30;0.30;;;;;;;29.36;25.46;100044.41;4906456;29;20089;-75
2022/05/31 10:21:10;;;;;;;1.30;0.20;;;;;;;29.86;24.07;100009.72;4921366;29;20387;-74
2022/05/31 10:23:49;;;;;;;;;;;;;;;;;;;;;
2022/05/31 10:26:31;;;;;;;0.10;0.10;;;;;;;32.42;22.33;100035.78;4925608;29;20114;-74
2022/05/31 10:29:43;;;;;;;;;;;;;;;;;;;;;
2022/05/31 10:32:48;;;;;;;0.15;0.10;;;;;;;32.31;19.78;100046.44;4918448;29;20115;-75
2022/05/31 10:35:53;;;;;;;0.22;0.20;;;;;;;32.71;20.17;100046.72;4926417;29;20495;-75
2022/05/31 10:38:32;;;;;;;0.40;0.20;;;;;;;34.10;18.14;100036.16;4911617;29;20024;-75
2022/05/31 10:41:29;;;;;;;;;;;;;;;;;;;;;
2022/05/31 10:48:02;;;;;;;0.20;0.20;;;;;;;34.09;17.35;100029.69;4901148;29;20047;-74
2022/05/31 10:50:54;;;;;;;0.22;0.13;;;;;;;33.17;18.07;100050.81;4919300;29;20044;-74
2022/05/31 10:54:04;;;;;;;1.42;0.30;;;;;;;33.73;18.21;100040.91;4917931;29;20111;-75
2022/05/31 10:57:15;;;;;;;0.63;0.30;;;;;;;32.49;19.69;100034.88;4924389;29;20057;-74
2022/05/31 11:03:15;;;;;;;1.17;0.30;;;;;;;34.56;17.11;100040.00;5054705;23;20143;-76
2022/05/31 11:13:19;;;;;;;1.05;0.40;;;;;;;35.36;16.42;100038.13;4823863;29;20123;-74
2022/05/31 11:16:03;;;;;;;0.85;0.30;;;;;;;37.43;14.56;100042.84;4815140;29;20044;-76
2022/05/31 11:22:27;;;;;;;0.95;0.40;;;;;;;33.45;17.30;100040.25;4886705;29;20045;-76
2022/05/31 11:25:14;;;;;;;2.70;0.40;;;;;;;30.24;20.72;100017.59;4920773;29;20037;-75
2022/05/31 11:28:10;;;;;;;0.88;0.40;;;;;;;29.69;21.62;100035.94;4915308;29;20380;-75
2022/05/31 11:30:46;;;;;;;1.00;0.40;;;;;;;33.05;18.64;100042.94;4910346;29;20010;-76
2022/05/31 11:33:55;;;;;;;;;;;;;;;;;;;;;
2022/05/31 11:37:12;;;;;;;0.93;0.30;;;;;;;34.95;16.41;100038.31;4917911;29;20128;-75
2022/05/31 11:41:08;;;;;;;;;;;;;;;;;;;;;
2022/05/31 11:51:29;;;;;;;;;;;;;;;;;;;;;
2022/05/31 11:54:24;;;;;;;;;;;;;;;;;;;;;
2022/05/31 11:57:34;;;;;;;;;;;;;;;;;;;;;
2022/05/31 12:00:59;;;;;;;;;;;;;;;;;;;;;
2022/05/31 12:25:18;;;;;;;;;;;;;;;;;;;;;
2022/05/31 12:28:23;;;;;;;;;;;;;;;;;;;;;
2022/05/31 12:35:05;;;;;;;;;;;;;;;;;;;;;
2022/05/31 12:42:27;;;;;;;0.32;0.30;;;;;;;41.01;11.40;99978.56;4815783;29;20118;-76
2022/05/31 12:45:30;;;;;;;;;;;;;;;;;;;;;
2022/05/31 14:36:00;;;;;;;4.60;0.50;;;;;;;37.25;12.76;100024.31;5587028;23;20046;-75
2022/05/31 14:38:42;;;;;;;;;;;;;;;;;;;;;
2022/05/31 14:55:55;;;;;;;2.85;0.80;;;;;;;30.19;19.26;100001.13;4876382;29;20403;-74
2022/05/31 15:09:21;;;;;;;2.78;0.70;;;;;;;28.19;22.29;100008.06;4691365;30;20042;-74
2022/05/31 15:21:43;;;;;;;1.63;0.65;;;;;;;31.10;19.82;100011.44;4880088;29;20072;-75
2022/05/31 15:24:35;;;;;;;3.28;0.77;;;;;;;34.98;17.27;100024.47;4956764;28;20035;-76
2022/05/31 15:27:01;;;;;;;3.22;1.08;;;;;;;35.63;14.93;100000.81;4954351;28;20031;-75
2022/05/31 15:29:29;;;;;;;2.45;1.10;;;;;;;33.04;16.58;99990.38;4975031;28;20037;-76
2022/05/31 15:31:57;;;;;;;1.45;0.68;;;;;;;30.68;19.23;100001.22;4950898;28;20062;-77
2022/05/31 15:34:58;;;;;;;1.63;0.70;;;;;;;31.26;19.92;99995.94;4947854;28;20023;-78
2022/05/31 15:37:27;;;;;;;4.55;0.77;;;;;;;33.47;16.55;100006.63;4902882;29;20067;-78
2022/05/31 15:39:54;;;;;;;1.15;0.80;;;;;;;30.43;18.77;99991.75;4931388;29;20083;-75
2022/05/31 15:42:45;;;;;;;1.60;0.77;;;;;;;27.49;21.84;99998.91;4910192;29;20059;-77
2022/05/31 15:48:24;;;;;;;2.85;0.80;;;;;;;27.29;23.12;100013.19;4939476;29;20072;-77
2022/05/31 15:50:49;;;;;;;1.60;0.80;;;;;;;30.16;19.50;100010.41;4926613;29;20039;-75
2022/05/31 15:53:24;;;;;;;1.02;0.50;;;;;;;28.23;21.35;100013.72;4923316;29;20036;-79
2022/05/31 15:56:37;;;;;;;0.80;0.50;;;;;;;25.67;23.58;100005.88;4939337;29;20456;-78
2022/05/31 16:02:48;;;;;;;1.88;0.60;;;;;;;28.61;20.37;100017.06;4913954;29;20099;-74
2022/05/31 16:05:24;;;;;;;4.70;0.73;;;;;;;30.64;17.88;100006.91;4920934;29;20110;-76
2022/05/31 16:08:06;;;;;;;3.67;0.63;;;;;;;31.76;16.84;100023.69;4919553;29;20031;-74
2022/05/31 16:10:38;;;;;;;0.65;0.47;;;;;;;33.10;15.87;100022.63;4916767;29;20032;-74
2022/05/31 16:13:11;;;;;;;2.53;0.50;;;;;;;31.68;16.92;100027.81;4918548;29;20060;-75
2022/05/31 16:19:30;;;;;;;2.20;0.60;;;;;;;30.87;17.82;100019.63;4930438;29;20239;-76
2022/05/31 16:23:13;;;;;;;;;;;;;;;;;;;;;
2022/05/31 16:25:46;;;;;;;2.53;0.80;;;;;;;28.39;18.56;99983.22;4840283;29;20623;-75
2022/05/31 16:31:46;;;;;;;1.77;0.50;;;;;;;30.40;17.86;99988.91;4896180;29;20040;-76
2022/05/31 16:41:14;;;;;;;6.00;1.02;;;;;;;30.26;18.32;100026.47;4922769;29;20054;-76
2022/05/31 16:44:00;;;;;;;2.05;0.50;;;;;;;29.83;18.61;100021.78;4933555;29;20071;-74
2022/05/31 16:46:28;;;;;;;4.30;0.70;;;;;;;29.11;18.49;100009.84;4910683;29;20057;-74
2022/05/31 16:48:58;;;;;;;1.25;0.50;;;;;;;28.98;19.01;100027.13;4926518;29;20039;-76
2022/05/31 16:52:21;;;;;;;8.77;0.60;;;;;;;29.01;19.87;100033.97;4927394;29;20047;-76
2022/05/31 16:55:08;;;;;;;2.58;1.30;;;;;;;29.12;20.09;100025.50;4873644;29;20448;-75
2022/05/31 16:57:36;;;;;;;2.60;0.63;;;;;;;29.17;19.48;100025.91;4911927;28;20412;-76
2022/05/31 17:00:53;;;;;;;1.75;0.70;;;;;;;28.83;20.58;100028.31;4980221;28;20061;-75
2022/05/31 17:03:49;;;;;;;1.38;0.70;;;;;;;28.08;21.60;100034.53;4964884;28;20024;-73
2022/05/31 17:15:23;;;;;;;4.32;0.70;;;;;;;27.44;22.86;100025.34;5008486;23;20048;-75
2022/05/31 17:21:13;;;;;;;1.85;0.57;;;;;;;26.30;24.01;100037.09;4940513;29;20072;-75
2022/05/31 17:23:51;;;;;;;1.00;0.43;;;;;;;25.85;25.27;100034.09;4925775;29;20023;-76
2022/05/31 17:26:18;;;;;;;4.88;0.70;;;;;;;25.64;25.28;100042.22;4911412;29;20047;-74
2022/05/31 17:28:50;;;;;;;3.22;0.73;;;;;;;25.37;25.57;100054.22;4934398;29;20024;-76
2022/05/31 17:31:49;;;;;;;3.15;0.60;;;;;;;25.57;25.01;100052.13;4940227;29;20020;-76
2022/05/31 17:37:52;;;;;;;;;;;;;;;;;;;;;
2022/05/31 17:47:05;;;;;;;3.33;0.77;;;;;;;24.30;27.45;100075.41;4864991;29;20831;-76
2022/05/31 17:52:56;;;;;;;4.00;0.77;;;;;;;23.84;28.45;100060.06;4867513;29;20040;-76
2022/05/31 17:58:44;;;;;;;4.65;0.60;;;;;;;22.68;30.07;100044.50;4910543;29;20079;-74
2022/05/31 18:01:19;;;;;;;2.00;0.70;;;;;;;22.31;30.79;100069.69;4931179;29;20756;-75
2022/05/31 18:04:12;;;;;;;2.22;0.70;;;;;;;21.61;31.58;100037.41;4936686;29;20047;-76
2022/05/31 18:06:38;;;;;;;1.33;0.50;;;;;;;21.57;32.52;100064.34;4937278;29;20144;-75
2022/05/31 18:16:09;;;;;;;3.08;0.60;;;;;;;19.26;36.91;100083.72;4847985;29;20159;-74
2022/05/31 18:18:44;;;;;;;1.85;0.82;;;;;;;18.16;38.66;100048.09;4835319;29;20045;-76
2022/05/31 18:22:02;;;;;;;1.40;0.60;;;;;;;17.70;40.74;100091.00;4869792;29;20037;-77
2022/05/31 18:30:47;;;;;;;2.33;0.60;;;;;;;16.37;45.07;100085.94;4845281;29;20098;-76
2022/05/31 18:33:20;;;;;;;2.22;0.90;;;;;;;16.08;45.63;100067.06;4909413;29;20036;-76
2022/05/31 18:35:46;;;;;;;3.05;0.63;;;;;;;15.87;46.28;100081.31;4906231;29;20130;-76
2022/05/31 18:40:39;;;;;;;6.38;0.77;;;;;;;15.48;47.75;100076.34;4904649;29;20058;-75
2022/05/31 18:43:50;;;;;;;2.37;0.53;;;;;;;15.34;48.31;100092.88;4916187;29;20040;-76
2022/05/31 18:46:58;;;;;;;7.60;0.82;;;;;;;15.21;48.58;100101.97;4910612;29;20072;-76
2022/05/31 19:00:22;;;;;;;3.45;0.60;;;;;;;14.67;51.22;100105.09;4901974;29;19912;-75
2022/05/31 19:10:16;;;;;;;1.80;0.70;;;;;;;14.23;53.19;100128.34;4839805;29;20059;-74
2022/05/31 19:15:26;;;;;;;3.15;0.88;;;;;;;14.03;53.67;100129.44;4942470;29;20067;-76
2022/05/31 19:18:21;;;;;;;1.60;0.65;;;;;;;13.93;54.33;100133.16;4926575;29;20032;-76
2022/05/31 19:21:53;;;;;;;;;;;;;;;;;;;;;
2022/05/31 19:24:21;;;;;;;1.90;0.55;;;;;;;13.66;55.39;100134.59;4870552;29;20519;-76
2022/05/31 19:26:55;;;;;;;1.27;0.57;;;;;;;13.50;54.98;100133.97;4912848;29;20048;-74
2022/05/31 19:29:20;;;;;;;4.47;0.90;;;;;;;13.42;56.21;100129.13;4917617;29;20036;-75
2022/05/31 19:31:48;;;;;;;4.30;0.73;;;;;;;13.36;56.56;100144.84;4903438;29;20091;-74
2022/05/31 19:34:42;;;;;;;3.17;0.60;;;;;;;13.25;56.49;100151.53;4916048;29;20056;-74
2022/05/31 19:37:13;;;;;;;4.63;1.00;;;;;;;13.15;57.70;100149.69;4915184;29;20024;-75
2022/05/31 19:39:57;;;;;;;5.38;1.15;;;;;;;12.88;58.03;100139.25;4933912;29;20166;-73
2022/05/31 19:42:31;;;;;;;7.97;0.77;;;;;;;12.73;58.38;100130.06;4905239;29;20115;-77
2022/05/31 19:45:03;;;;;;;5.65;0.68;;;;;;;12.77;59.26;100156.91;4931562;29;20036;-75
2022/05/31 19:47:59;;;;;;;1.87;0.60;;;;;;;12.68;59.37;100165.75;4943386;29;20050;-77
2022/05/31 19:53:57;;;;;;;2.55;0.60;;;;;;;12.42;60.26;100178.03;4979827;23;20055;-75
2022/05/31 19:59:56;;;;;;;4.70;1.00;;;;;;;12.16;62.26;100178.16;4945161;28;20042;-73
2022/05/31 20:03:22;;;;;;;4.20;0.77;;;;;;;11.78;62.04;100145.69;4910356;29;20035;-77
2022/05/31 22:08:53;;;;;;;4.05;1.60;;;;;;;9.03;76.78;100294.03;1405872;27;20119;-73
2022/05/31 22:11:24;;;;;;;3.78;1.00;;;;;;;9.07;76.74;100295.16;4892385;29;20039;-73
2022/05/31 22:13:50;;;;;;;2.45;0.90;;;;;;;9.10;76.78;100300.09;4909889;29;20033;-73
2022/05/31 22:16:42;;;;;;;4.10;0.80;;;;;;;9.07;76.06;100300.63;4925906;29;20020;-73
2022/05/31 22:19:12;;;;;;;5.32;1.05;;;;;;;8.99;76.86;100304.63;4929384;29;20055;-74
2022/05/31 22:21:39;;;;;;;6.00;1.13;;;;;;;8.84;76.74;100297.13;4918245;29;20027;-73
2022/05/31 22:24:06;;;;;;;4.22;1.20;;;;;;;8.79;77.74;100299.81;4922322;29;20027;-73
2022/05/31 22:26:34;;;;;;;3.35;1.30;;;;;;;8.77;76.97;100312.84;4940728;29;20034;-73
2022/05/31 22:29:01;;;;;;;2.55;1.00;;;;;;;8.69;77.38;100302.44;4922353;29;20035;-72
2022/05/31 22:31:27;;;;;;;3.55;1.70;;;;;;;8.56;78.91;100295.47;4934411;29;20020;-73
2022/05/31 22:33:53;;;;;;;2.92;1.00;;;;;;;8.55;78.62;100305.53;4942103;29;20091;-74
2022/05/31 22:36:21;;;;;;;3.33;1.20;;;;;;;8.47;78.98;100313.34;4918770;29;20066;-73
2022/05/31 22:38:54;;;;;;;2.92;1.20;;;;;;;8.29;79.34;100300.84;4909836;29;20024;-72
2022/05/31 22:41:30;;;;;;;4.95;1.30;;;;;;;8.26;79.44;100306.81;4926408;29;20066;-74
2022/05/31 22:44:00;;;;;;;4.32;1.20;;;;;;;8.18;79.08;100311.59;4915827;28;20068;-73
2022/05/31 22:46:43;;;;;;;2.90;1.08;;;;;;;8.20;79.68;100320.34;4934832;29;20030;-75
2022/05/31 22:49:09;;;;;;;1.83;0.98;;;;;;;8.14;80.65;100315.91;4939528;28;20098;-77
2022/05/31 22:51:38;;;;;;;2.67;0.98;;;;;;;8.06;79.84;100312.81;4943947;29;20536;-76
2022/05/31 22:54:04;;;;;;;6.55;1.15;;;;;;;8.10;80.95;100322.94;4931300;29;20471;-71
2022/05/31 22:56:33;;;;;;;1.45;1.10;;;;;;;8.05;80.23;100328.31;4899101;29;20103;-76
2022/05/31 22:59:00;;;;;;;5.93;1.52;;;;;;;8.00;80.69;100325.53;4902594;29;20032;-74
2022/05/31 23:01:26;;;;;;;2.38;1.08;;;;;;;7.90;81.05;100320.78;4902886;29;20103;-74
2022/05/31 23:03:52;;;;;;;4.07;1.00;;;;;;;7.92;80.53;100328.69;4885252;29;20031;-72
2022/05/31 23:06:21;;;;;;;4.78;1.02;;;;;;;7.79;80.85;100324.41;4924902;29;20159;-72
2022/05/31 23:08:47;;;;;;;3.05;1.00;;;;;;;7.69;80.71;100319.63;4911993;28;20079;-74
2022/05/31 23:11:13;;;;;;;2.60;0.80;;;;;;;7.69;81.49;100333.25;4919276;29;20061;-74
2022/05/31 23:13:39;;;;;;;3.25;1.00;;;;;;;7.64;80.67;100336.72;4937513;29;20036;-75
2022/05/31 23:16:14;;;;;;;3.17;1.00;;;;;;;7.58;81.76;100335.00;4901854;29;20031;-77
2022/05/31 23:18:44;;;;;;;3.70;0.82;;;;;;;7.53;80.76;100321.31;4935360;29;20055;-75
2022/05/31 23:21:17;;;;;;;2.03;0.93;;;;;;;7.55;81.26;100323.78;4924645;29;20023;-74
2022/05/31 23:23:49;;;;;;;1.85;0.85;;;;;;;7.49;81.23;100310.09;4937780;29;20032;-74
2022/05/31 23:26:19;;;;;;;1.23;0.90;;;;;;;7.56;80.87;100320.00;4934435;29;20026;-74
2022/05/31 23:28:48;;;;;;;1.25;0.70;;;;;;;7.47;80.15;100306.78;4916022;29;20119;-74
2022/05/31 23:31:19;;;;;;;2.20;0.98;;;;;;;7.46;80.89;100305.16;4895814;29;20048;-72
2022/05/31 23:34:26;;;;;;;1.95;0.70;;;;;;;7.60;80.01;100326.59;4907306;29;20095;-71
2022/05/31 23:36:51;;;;;;;1.55;1.00;;;;;;;7.57;80.15;100321.66;4839811;29;21122;-73
2022/05/31 23:39:27;;;;;;;1.55;0.85;;;;;;;7.60;79.66;100327.41;4921719;29;20043;-72
2022/05/31 23:41:58;;;;;;;4.45;0.93;;;;;;;7.47;80.41;100305.97;4929219;29;20079;-71